• Join FlightAware (Why Join?)
  • Login
  • US Flag 
04:22AM EDT


 

Airport Tracker/Info


-or-


 

Live Flight TrackerFlight Track Log ✈ N910GT ✈ 21-Jul-2013 ✈ KAHN - KSCX

Flight Track Log - Related Links

Times and Time Zones

All times are in EDT time to prevent confusion due to time zone crossing. See the N910GT flight status page for this flight to view local times or setup timezone preferences in your user account.

Time Position Orientation Groundspeed Altitude Reporting Facility
EDT Latitude Longitude Course Direction KTS MPH feet Rate Location/Type
11:06AM 34.0000 -83.3833 337° Northwest 127 146 2,900  Level Atlanta TRACON
11:07AM 34.0333 -83.4000 337° Northwest 129 148 3,900 900 Climbing Atlanta TRACON
11:08AM 34.0667 -83.4167 338° Northwest 133 153 4,800 840 Climbing Atlanta TRACON
11:09AM 34.1122 -83.4417 336° Northwest 131 151 6,200 840 Climbing Atlanta Center
11:10AM 34.1497 -83.4614 336° Northwest 131 151 7,100 900 Climbing Atlanta Center
11:11AM 34.1917 -83.4786 341° North 139 160 8,000 420 Climbing Atlanta Center
11:12AM 34.2356 -83.5011 337° Northwest 153 176 8,000  Level Atlanta Center
11:13AM 34.2794 -83.5208 340° North 168 193 8,000  Level Atlanta Center
11:14AM 34.3275 -83.5458 337° Northwest 176 203 8,000  Level Atlanta Center
11:15AM 34.3736 -83.5656 341° North 176 203 8,000  Level Atlanta Center
11:16AM 34.4175 -83.5881 337° Northwest 171 197 8,000  Level Atlanta Center
11:17AM 34.4572 -83.6056 340° North 176 203 8,000  Level Atlanta Center
11:18AM 34.5031 -83.6278 338° Northwest 171 197 8,000  Level Atlanta Center
11:19AM 34.5514 -83.6528 337° Northwest 176 203 8,000  Level Atlanta Center
11:20AM 34.5972 -83.6753 338° Northwest 171 197 8,000  Level Atlanta Center
11:21AM 34.6433 -83.6953 340° North 171 197 8,000  Level Atlanta Center
11:22AM 34.6914 -83.7181 339° North 182 209 8,000  Level Atlanta Center
11:23AM 34.7331 -83.7456 332° Northwest 177 204 8,000  Level Atlanta Center
11:24AM 34.7750 -83.7783 327° Northwest 177 204 8,000  Level Atlanta Center
11:25AM 34.8208 -83.8136 328° Northwest 177 204 8,000  Level Atlanta Center
11:26AM 34.8647 -83.8414 333° Northwest 177 204 8,000  Level Atlanta Center
11:27AM 34.9064 -83.8717 329° Northwest 177 204 8,000  Level Atlanta Center
11:28AM 34.9483 -83.9044 327° Northwest 177 204 8,000  Level Atlanta Center
11:29AM 34.9881 -83.9372 326° Northwest 177 204 8,000  Level Atlanta Center
11:30AM 35.0297 -83.9678 329° Northwest 177 204 8,000  Level Atlanta Center
11:31AM 35.0694 -84.0033 324° Northwest 177 204 8,000  Level Atlanta Center
11:32AM 35.1092 -84.0361 326° Northwest 177 204 8,000  Level Atlanta Center
11:33AM 35.1486 -84.0692 326° Northwest 177 204 8,000  Level Atlanta Center
11:34AM 35.1883 -84.1047 324° Northwest 177 204 8,000  Level Atlanta Center
11:35AM 35.2239 -84.1431 319° Northwest 177 204 8,000  Level Atlanta Center
11:36AM 35.2656 -84.1736 329° Northwest 172 198 8,000  Level Atlanta Center
11:37AM 35.3050 -84.2067 326° Northwest 172 198 8,000  Level Atlanta Center
11:38AM 35.3508 -84.2272 340° North 172 198 8,000  Level Atlanta Center
11:39AM 35.3989 -84.2400 348° North 172 198 8,000  Level Atlanta Center
11:40AM 35.4469 -84.2581 343° North 172 198 8,000  Level Atlanta Center
11:41AM 35.4947 -84.2708 348° North 172 198 8,000  Level Atlanta Center
11:42AM 35.5428 -84.2889 343° North 172 198 8,000 -120 Level Atlanta Center
11:44AM 35.6015 -84.3055 347° North  Level FlightAware Approximate
11:49AM 35.8822 -84.3875 341° North 184 212 7,400  Level Indianapolis Center
11:50AM 35.9356 -84.3956 353° North 191 220 6,900 -540 Descending Indianapolis Center
11:51AM 35.9214 -84.3965 347° North  Level FlightAware Approximate
11:51AM 35.9786 -84.4056 349° North 217 250 6,500  Level Atlanta Center
11:52AM 35.9672 -84.4096 347° North  Level FlightAware Approximate
11:52AM 36.0328 -84.4136 353° North 223 257 6,000  Level Atlanta Center
11:53AM 36.0129 -84.4227 347° North  Level FlightAware Approximate
11:53AM 36.0806 -84.4164 357° North 198 228 6,000  Level Atlanta Center
11:54AM 36.0580 -84.4418 341° North  Level FlightAware Approximate
11:54AM 36.1286 -84.4167 360° North 180 207 6,000  Level Atlanta Center
11:55AM 36.1911 -84.3989 13° North 166 191 6,000  Level Indianapolis Center
11:56AM 36.2378 -84.3875 11° North 168 193 6,000 -240 Level Indianapolis Center
11:57AM 36.2886 -84.3761 10° North 180 207 5,600 -420 Descending Indianapolis Center
11:58AM 36.3414 -84.3650 10° North 190 219 5,200 -240 Descending Indianapolis Center
11:59AM 36.3847 -84.3572 North 167 192 5,200 -720 Level Indianapolis Center
12:01PM 36.3861 -84.3969 272° West 172 198 3,800 -1,080 Descending Indianapolis Center
12:02PM 36.4039 -84.4483 293° West 165 190 3,100 -540 Descending Indianapolis Center
12:03PM 36.4275 -84.5033 298° West 157 181 2,800 -240 Descending Indianapolis Center
12:04PM 36.4328 -84.5508 278° West 152 175 2,700 -300 Descending Indianapolis Center
12:05PM 36.4311 -84.5919 267° West 148 170 2,300 -420 Descending Indianapolis Center